createdAt,value
2022-10-13T00:01:14.832Z,32.28
2022-10-13T00:03:46.355Z,21.58
2022-10-13T00:06:16.882Z,22.17
2022-10-13T00:08:44.765Z,24.17
2022-10-13T00:11:21.024Z,21.70
2022-10-13T00:13:49.247Z,21.92
2022-10-13T00:16:19.932Z,21.58
2022-10-13T00:18:48.067Z,18.60
2022-10-13T00:21:19.465Z,21.52
2022-10-13T00:23:47.121Z,23.23
2022-10-13T00:26:16.706Z,17.63
2022-10-13T00:28:46.362Z,23.67
2022-10-13T00:31:29.111Z,25.02
2022-10-13T00:33:58.361Z,16.65
2022-10-13T00:36:26.193Z,19.92
2022-10-13T00:38:54.362Z,19.67
2022-10-13T00:41:21.964Z,20.55
2022-10-13T00:44:05.984Z,19.48
2022-10-13T00:46:35.634Z,20.48
2022-10-13T00:49:09.300Z,21.00
2022-10-13T00:51:42.103Z,20.30
2022-10-13T00:54:11.722Z,19.27
2022-10-13T00:56:40.125Z,17.20
2022-10-13T00:59:23.084Z,19.25
2022-10-13T01:01:52.045Z,17.48
2022-10-13T01:04:23.596Z,21.15
2022-10-13T01:06:52.503Z,18.70
2022-10-13T01:09:19.938Z,21.15
2022-10-13T01:11:59.570Z,25.20
2022-10-13T01:14:43.243Z,23.70
2022-10-13T01:17:39.563Z,24.30
2022-10-13T01:20:43.271Z,23.30
2022-10-13T01:23:11.200Z,22.73
2022-10-13T01:26:17.336Z,19.48
2022-10-13T01:29:03.198Z,18.00
2022-10-13T01:31:47.296Z,21.85
2022-10-13T01:34:44.416Z,20.75
2022-10-13T01:37:18.807Z,18.83
2022-10-13T01:39:55.432Z,17.83
2022-10-13T01:42:30.360Z,18.95
2022-10-13T01:45:02.328Z,18.75
2022-10-13T01:47:32.064Z,20.85
2022-10-13T01:50:00.888Z,20.85
2022-10-13T01:52:35.559Z,20.23
2022-10-13T01:55:09.849Z,19.23
2022-10-13T01:57:44.211Z,17.08
2022-10-13T02:00:15.681Z,16.35
2022-10-13T02:02:46.220Z,18.58
2022-10-13T02:05:28.317Z,22.08
2022-10-13T02:08:24.115Z,21.98
2022-10-13T02:11:01.084Z,22.90
2022-10-13T02:13:32.552Z,22.13
2022-10-13T02:16:01.786Z,21.73
2022-10-13T02:18:35.010Z,18.83
2022-10-13T02:21:03.759Z,16.60
2022-10-13T02:23:31.659Z,21.98
2022-10-13T02:26:00.241Z,18.30
2022-10-13T02:28:28.365Z,16.05
2022-10-13T02:30:56.205Z,19.30
2022-10-13T02:33:23.903Z,19.38
2022-10-13T02:35:51.353Z,18.25
2022-10-13T02:38:18.996Z,17.48
2022-10-13T02:40:46.475Z,20.15
2022-10-13T02:43:14.104Z,17.73
2022-10-13T02:45:41.537Z,21.23
2022-10-13T02:48:09.403Z,19.23
2022-10-13T02:50:36.816Z,17.00
2022-10-13T02:53:04.322Z,25.35
2022-10-13T02:55:31.773Z,17.85
2022-10-13T02:57:59.626Z,23.42
2022-10-13T03:00:27.237Z,20.38
2022-10-13T03:02:54.738Z,16.40
2022-10-13T03:05:22.414Z,22.60
2022-10-13T03:07:50.130Z,18.88
2022-10-13T03:10:17.747Z,16.75
2022-10-13T03:12:45.182Z,17.40
2022-10-13T03:15:12.842Z,19.75
2022-10-13T03:17:40.325Z,22.25
2022-10-13T03:20:08.670Z,16.08
2022-10-13T03:22:36.076Z,18.35
2022-10-13T03:25:04.145Z,19.08
2022-10-13T03:27:31.546Z,22.23
2022-10-13T03:29:58.981Z,18.88
2022-10-13T03:32:26.731Z,25.65
2022-10-13T03:34:54.198Z,18.25
2022-10-13T03:37:21.591Z,21.98
2022-10-13T03:39:48.939Z,18.65
2022-10-13T03:42:16.403Z,18.70
2022-10-13T03:44:43.841Z,15.00
2022-10-13T03:47:11.224Z,20.05
2022-10-13T03:49:39.251Z,19.33
2022-10-13T03:52:06.669Z,16.02
2022-10-13T03:54:34.271Z,15.80
2022-10-13T03:57:01.680Z,14.75
2022-10-13T03:59:34.190Z,16.50
2022-10-13T04:02:04.083Z,17.15
2022-10-13T04:04:31.607Z,12.25
2022-10-13T04:06:59.106Z,15.30
2022-10-13T04:09:26.955Z,17.17
2022-10-13T04:11:54.376Z,14.10
2022-10-13T04:14:21.822Z,16.15
2022-10-13T04:16:49.238Z,15.45
2022-10-13T04:19:16.714Z,14.70
2022-10-13T04:21:44.738Z,19.55
2022-10-13T04:24:13.678Z,18.52
2022-10-13T04:26:41.372Z,28.55
2022-10-13T04:29:10.751Z,27.83
2022-10-13T04:31:39.359Z,29.90
2022-10-13T04:34:07.870Z,23.98
2022-10-13T04:36:35.392Z,31.50
2022-10-13T04:39:02.962Z,27.80
2022-10-13T04:41:30.368Z,19.33
2022-10-13T04:43:57.874Z,20.13
2022-10-13T04:46:27.408Z,21.35
2022-10-13T04:48:55.782Z,19.85
2022-10-13T04:51:25.293Z,19.27
2022-10-13T04:54:01.213Z,19.73
2022-10-13T04:56:29.352Z,20.88
2022-10-13T04:58:56.710Z,20.25
2022-10-13T05:01:25.544Z,24.73
2022-10-13T05:03:59.236Z,19.00
2022-10-13T05:06:31.130Z,18.83
2022-10-13T05:08:58.798Z,20.98
2022-10-13T05:11:27.772Z,21.63
2022-10-13T05:13:56.077Z,17.33
2022-10-13T05:16:24.230Z,16.70
2022-10-13T05:18:53.242Z,31.42
2022-10-13T05:21:30.248Z,17.80
2022-10-13T05:23:58.289Z,14.38
2022-10-13T05:26:29.239Z,17.73
2022-10-13T05:31:26.047Z,19.50
2022-10-13T05:33:54.168Z,14.10
2022-10-13T05:36:24.126Z,16.73
2022-10-13T05:38:56.578Z,28.38
2022-10-13T05:41:25.725Z,28.08
2022-10-13T05:43:57.510Z,20.40
2022-10-13T05:46:25.187Z,17.58
2022-10-13T05:48:52.641Z,18.35
2022-10-13T05:51:24.575Z,27.20
2022-10-13T05:54:24.559Z,23.23
2022-10-13T05:56:59.368Z,19.50
2022-10-13T05:59:30.126Z,17.85
2022-10-13T06:01:58.010Z,20.88
2022-10-13T06:04:49.448Z,25.90
2022-10-13T06:07:17.353Z,17.55
2022-10-13T06:09:44.896Z,23.30
2022-10-13T06:12:12.429Z,27.58
2022-10-13T06:14:39.969Z,25.90
2022-10-13T06:17:07.726Z,28.85
2022-10-13T06:19:35.156Z,19.38
2022-10-13T06:22:03.791Z,22.55
2022-10-13T06:24:31.898Z,19.40
2022-10-13T06:26:59.281Z,21.98
2022-10-13T06:29:26.690Z,21.02
2022-10-13T06:31:54.103Z,29.60
2022-10-13T06:34:21.479Z,24.27
2022-10-13T06:36:48.842Z,25.50
2022-10-13T06:39:16.254Z,27.75
2022-10-13T06:41:43.609Z,28.48
2022-10-13T06:44:11.418Z,32.17
2022-10-13T06:46:38.787Z,26.10
2022-10-13T06:49:06.288Z,22.15
2022-10-13T06:51:33.757Z,29.73
2022-10-13T06:54:01.233Z,21.08
2022-10-13T06:56:30.275Z,21.15
2022-10-13T06:58:57.775Z,30.52
2022-10-13T07:01:25.377Z,27.58
2022-10-13T07:03:52.823Z,33.58
2022-10-13T07:06:20.267Z,33.58
2022-10-13T07:08:47.707Z,30.67
2022-10-13T07:11:16.690Z,33.58
2022-10-13T07:13:46.668Z,29.27
2022-10-13T07:16:15.519Z,23.60
2022-10-13T07:18:42.968Z,14.32
2022-10-13T07:21:10.460Z,17.10
2022-10-13T07:23:37.870Z,20.02
2022-10-13T07:26:10.789Z,29.48
2022-10-13T07:28:39.399Z,30.35
2022-10-13T07:31:16.285Z,33.63
2022-10-13T07:33:45.624Z,34.95
2022-10-13T07:36:13.331Z,39.95
2022-10-13T07:38:41.023Z,30.13
2022-10-13T07:41:10.906Z,29.80
2022-10-13T07:43:38.644Z,31.77
2022-10-13T07:46:06.678Z,23.33
2022-10-13T07:48:35.180Z,31.48
2022-10-13T07:51:11.559Z,34.72
2022-10-13T07:53:40.332Z,27.23
2022-10-13T07:56:10.692Z,20.73
2022-10-13T07:58:40.214Z,26.05
2022-10-13T08:01:08.974Z,24.98
2022-10-13T08:06:09.659Z,24.02
2022-10-13T08:08:37.650Z,27.15
2022-10-13T08:11:08.591Z,20.42
2022-10-13T08:13:36.396Z,23.35
2022-10-13T08:16:04.434Z,20.98
2022-10-13T08:18:32.233Z,23.90
2022-10-13T08:21:33.024Z,17.13
2022-10-13T08:23:51.346Z,20.42
2022-10-13T08:26:29.393Z,19.08
2022-10-13T08:29:16.704Z,19.45
2022-10-13T08:31:44.402Z,15.50
2022-10-13T08:34:12.448Z,13.57
2022-10-13T08:36:40.181Z,11.13
2022-10-13T08:39:07.718Z,14.40
2022-10-13T08:41:41.480Z,10.75
2022-10-13T08:47:30.206Z,9.60
2022-10-13T08:50:01.391Z,8.85
2022-10-13T08:54:58.595Z,8.27
2022-10-13T08:57:26.235Z,5.97
2022-10-13T08:59:53.819Z,5.78
2022-10-13T09:02:30.749Z,3.05
2022-10-13T09:05:01.922Z,3.97
2022-10-13T09:07:33.756Z,4.90
2022-10-13T09:10:01.201Z,3.45
2022-10-13T09:12:31.656Z,2.63
2022-10-13T09:15:10.871Z,3.55
2022-10-13T09:17:40.925Z,2.38
2022-10-13T09:20:24.008Z,16.33
2022-10-13T09:23:03.623Z,4.05
2022-10-13T09:25:41.093Z,7.22
2022-10-13T09:28:16.274Z,4.30
2022-10-13T09:30:47.235Z,4.20
2022-10-13T09:33:20.349Z,7.10
2022-10-13T09:36:08.232Z,4.75
2022-10-13T09:38:35.739Z,7.80
2022-10-13T09:41:10.462Z,6.20
2022-10-13T09:44:00.052Z,5.03
2022-10-13T09:46:32.401Z,6.82
2022-10-13T09:49:05.077Z,6.93
2022-10-13T09:51:45.092Z,3.95
2022-10-13T09:54:42.345Z,3.47
2022-10-13T09:57:14.357Z,3.03
2022-10-13T09:59:47.600Z,2.90
2022-10-13T10:02:45.055Z,4.88
2022-10-13T10:05:38.340Z,2.83
2022-10-13T10:08:17.428Z,3.47
2022-10-13T10:10:45.098Z,4.93
2022-10-13T10:13:14.271Z,3.90
2022-10-13T10:15:53.790Z,4.18
2022-10-13T10:18:58.457Z,4.28
2022-10-13T10:21:44.082Z,4.13
2022-10-13T10:24:29.012Z,4.47
2022-10-13T10:27:05.388Z,8.65
2022-10-13T10:29:41.559Z,6.10
2022-10-13T10:32:36.091Z,7.82
2022-10-13T10:35:36.523Z,5.53
2022-10-13T10:38:30.109Z,5.43
2022-10-13T10:41:06.571Z,6.22
2022-10-13T10:44:02.242Z,6.55
2022-10-13T10:46:34.897Z,4.70
2022-10-13T10:49:16.791Z,13.93
2022-10-13T10:51:45.380Z,2.67
2022-10-13T10:54:35.927Z,4.30
2022-10-13T10:57:12.298Z,6.35
2022-10-13T11:00:05.076Z,18.25
2022-10-13T11:03:07.785Z,6.35
2022-10-13T11:06:01.369Z,4.43
2022-10-13T11:08:42.243Z,3.70
2022-10-13T11:11:33.434Z,6.47
2022-10-13T11:14:06.939Z,8.15
2022-10-13T11:16:59.503Z,8.65
2022-10-13T11:19:35.900Z,6.05
2022-10-13T11:22:03.348Z,5.03
2022-10-13T11:24:38.829Z,2.72
2022-10-13T11:27:11.926Z,6.97
2022-10-13T11:29:54.952Z,6.35
2022-10-13T11:32:30.714Z,10.85
2022-10-13T11:34:59.548Z,6.05
2022-10-13T11:38:05.617Z,8.73
2022-10-13T11:40:52.281Z,8.10
2022-10-13T11:43:31.485Z,3.97
2022-10-13T11:46:26.819Z,3.97
2022-10-13T11:49:15.135Z,5.32
2022-10-13T11:51:57.970Z,5.70
2022-10-13T11:54:34.109Z,3.40
2022-10-13T11:57:01.707Z,15.40
2022-10-13T11:59:31.283Z,5.70
2022-10-13T12:02:06.309Z,2.67
2022-10-13T12:04:33.719Z,4.25
2022-10-13T12:07:07.736Z,2.65
2022-10-13T12:09:40.462Z,2.97
2022-10-13T12:12:16.617Z,5.43
2022-10-13T12:14:47.852Z,6.80
2022-10-13T12:20:26.582Z,3.17
2022-10-13T12:22:55.071Z,4.38
2022-10-13T12:25:25.826Z,6.57
2022-10-13T12:27:55.953Z,5.38
2022-10-13T12:30:37.167Z,6.03
2022-10-13T12:35:45.176Z,7.13
2022-10-13T12:38:19.679Z,4.95
2022-10-13T12:40:49.613Z,4.93
2022-10-13T12:43:20.314Z,2.47
2022-10-13T12:45:47.893Z,12.07
2022-10-13T12:48:33.260Z,3.20
2022-10-13T12:51:23.548Z,2.50
2022-10-13T12:53:51.051Z,2.63
2022-10-13T12:56:42.471Z,2.33
2022-10-13T12:59:19.860Z,3.10
2022-10-13T13:01:58.140Z,4.35
2022-10-13T13:04:30.611Z,5.30
2022-10-13T13:06:59.692Z,3.30
2022-10-13T13:09:39.079Z,3.22
2022-10-13T13:12:20.377Z,4.35
2022-10-13T13:14:51.252Z,5.85
2022-10-13T13:17:38.572Z,4.75
2022-10-13T13:20:21.488Z,9.27
2022-10-13T13:22:50.873Z,6.10
2022-10-13T13:25:18.304Z,3.95
2022-10-13T13:27:45.708Z,2.58
2022-10-13T13:30:15.134Z,2.78
2022-10-13T13:32:42.740Z,2.70
2022-10-13T13:35:10.398Z,3.03
2022-10-13T13:37:41.669Z,3.40
2022-10-13T13:40:16.930Z,3.13
2022-10-13T13:42:44.535Z,6.15
2022-10-13T13:45:16.383Z,4.60
2022-10-13T13:47:44.602Z,3.88
2022-10-13T13:50:22.893Z,2.78
2022-10-13T13:52:50.461Z,2.47
2022-10-13T13:55:18.235Z,2.20
2022-10-13T13:57:45.805Z,3.63
2022-10-13T14:00:14.753Z,4.43
2022-10-13T14:02:43.797Z,5.35
2022-10-13T14:05:12.531Z,4.43
2022-10-13T14:07:40.464Z,4.30
2022-10-13T14:10:09.536Z,7.03
2022-10-13T14:12:37.615Z,5.45
2022-10-13T14:15:05.989Z,7.80
2022-10-13T14:17:33.353Z,3.28
2022-10-13T14:20:00.786Z,3.80
2022-10-13T14:22:28.171Z,6.45
2022-10-13T14:24:55.573Z,4.38
2022-10-13T14:27:23.397Z,3.97
2022-10-13T14:29:50.750Z,3.13
2022-10-13T14:32:18.396Z,5.25
2022-10-13T14:34:46.019Z,6.57
2022-10-13T14:37:13.450Z,6.68
2022-10-13T14:39:40.827Z,5.05
2022-10-13T14:42:08.283Z,4.80
2022-10-13T14:44:35.694Z,9.68
2022-10-13T14:47:03.521Z,7.45
2022-10-13T14:49:30.897Z,6.53
2022-10-13T14:51:58.357Z,3.67
2022-10-13T14:54:26.000Z,3.67
2022-10-13T14:56:53.468Z,9.00
2022-10-13T14:59:20.925Z,7.93
2022-10-13T15:01:49.262Z,4.80
2022-10-13T15:04:16.719Z,7.07
2022-10-13T15:06:44.206Z,9.23
2022-10-13T15:09:12.987Z,7.55
2022-10-13T15:11:40.530Z,10.98
2022-10-13T15:14:09.829Z,10.15
2022-10-13T15:16:38.075Z,18.00
2022-10-13T15:19:06.009Z,13.18
2022-10-13T15:21:33.481Z,12.40
2022-10-13T15:24:01.644Z,22.88
2022-10-13T15:26:29.099Z,29.73
2022-10-13T15:28:56.583Z,25.70
2022-10-13T15:31:24.680Z,25.88
2022-10-13T15:33:53.971Z,20.40
2022-10-13T15:36:22.833Z,33.92
2022-10-13T15:38:51.221Z,45.33
2022-10-13T15:41:19.160Z,49.55
2022-10-13T15:43:47.663Z,43.03
2022-10-13T15:46:21.720Z,51.33
2022-10-13T15:48:50.838Z,40.45
2022-10-13T15:51:20.936Z,42.60
2022-10-13T15:53:48.816Z,35.65
2022-10-13T15:56:16.878Z,38.22
2022-10-13T15:58:45.595Z,33.42
2022-10-13T16:01:14.244Z,33.53
2022-10-13T16:03:41.990Z,31.35
2022-10-13T16:06:12.571Z,30.95
2022-10-13T16:08:41.765Z,29.15
2022-10-13T16:11:11.211Z,27.08
2022-10-13T16:13:39.606Z,29.33
2022-10-13T16:16:07.561Z,45.20
2022-10-13T16:18:37.641Z,32.63
2022-10-13T16:21:19.792Z,37.95
2022-10-13T16:23:48.399Z,35.83
2022-10-13T16:26:17.717Z,36.38
2022-10-13T16:28:46.239Z,36.88
2022-10-13T16:31:16.093Z,34.05
2022-10-13T16:33:45.757Z,31.58
2022-10-13T16:36:18.517Z,34.25
2022-10-13T16:38:47.789Z,37.03
2022-10-13T16:41:18.319Z,34.70
2022-10-13T16:43:46.955Z,30.15
2022-10-13T16:46:16.428Z,32.42
2022-10-13T16:48:45.860Z,29.98
2022-10-13T16:51:16.130Z,27.67
2022-10-13T16:53:47.054Z,31.87
2022-10-13T16:56:14.627Z,29.30
2022-10-13T16:58:45.439Z,34.50
2022-10-13T17:01:13.373Z,32.92
2022-10-13T17:03:43.051Z,39.95
2022-10-13T17:06:11.678Z,23.83
2022-10-13T17:08:39.159Z,27.05
2022-10-13T17:11:07.191Z,24.25
2022-10-13T17:13:38.883Z,32.05
2022-10-13T17:16:06.795Z,39.40
2022-10-13T17:18:34.245Z,32.80
2022-10-13T17:21:04.410Z,45.40
2022-10-13T17:23:32.466Z,28.33
2022-10-13T17:26:06.098Z,30.40
2022-10-13T17:28:34.803Z,27.10
2022-10-13T17:31:09.676Z,29.30
2022-10-13T17:33:38.196Z,32.28
2022-10-13T17:36:07.674Z,29.80
2022-10-13T17:38:35.181Z,42.20
2022-10-13T17:41:04.896Z,54.10
2022-10-13T17:43:34.640Z,59.60
2022-10-13T17:46:37.396Z,62.15
2022-10-13T17:49:10.931Z,64.65
2022-10-13T17:51:42.173Z,60.53
2022-10-13T17:54:15.761Z,61.42
2022-10-13T17:56:45.313Z,50.13
2022-10-13T17:59:13.670Z,54.50
2022-10-13T18:01:42.219Z,60.03
2022-10-13T18:04:14.862Z,62.15
2022-10-13T18:06:45.749Z,66.97
2022-10-13T18:09:19.189Z,70.60
2022-10-13T18:11:50.644Z,62.38
2022-10-13T18:14:23.536Z,62.85
2022-10-13T18:16:52.166Z,55.28
2022-10-13T18:19:20.818Z,62.03
2022-10-13T18:21:48.874Z,58.13
2022-10-13T18:24:16.377Z,55.20
2022-10-13T18:26:43.797Z,58.15
2022-10-13T18:29:12.535Z,55.13
2022-10-13T18:31:41.726Z,52.03
2022-10-13T18:34:13.884Z,55.42
2022-10-13T18:36:44.238Z,53.05
2022-10-13T18:39:16.819Z,56.55
2022-10-13T18:41:44.307Z,53.15
2022-10-13T18:44:12.085Z,59.60
2022-10-13T18:46:39.895Z,55.65
2022-10-13T18:49:10.442Z,63.03
2022-10-13T18:51:37.898Z,62.47
2022-10-13T18:54:05.877Z,56.60
2022-10-13T18:56:34.676Z,57.75
2022-10-13T18:59:02.998Z,61.95
2022-10-13T19:01:32.487Z,69.15
2022-10-13T19:03:59.997Z,72.68
2022-10-13T19:06:30.545Z,79.20
2022-10-13T19:09:10.446Z,73.15
2022-10-13T19:11:40.153Z,71.55
2022-10-13T19:14:11.455Z,71.95
2022-10-13T19:16:42.326Z,65.13
2022-10-13T19:19:10.101Z,66.07
2022-10-13T19:21:38.958Z,60.00
2022-10-13T19:24:07.413Z,48.55
2022-10-13T19:26:36.076Z,52.33
2022-10-13T19:29:13.581Z,49.42
2022-10-13T19:31:42.751Z,54.78
2022-10-13T19:34:12.157Z,51.55
2022-10-13T19:36:45.398Z,60.13
2022-10-13T19:39:19.876Z,58.10
2022-10-13T19:41:48.766Z,53.22
2022-10-13T19:44:18.335Z,63.15
2022-10-13T19:46:47.105Z,59.40
2022-10-13T19:49:17.609Z,56.25
2022-10-13T19:51:46.447Z,59.20
2022-10-13T19:54:14.152Z,57.88
2022-10-13T19:56:41.602Z,57.55
2022-10-13T19:59:09.059Z,56.45
2022-10-13T20:01:41.172Z,55.83
2022-10-13T20:04:09.420Z,55.45
2022-10-13T20:06:37.267Z,58.30
2022-10-13T20:09:05.553Z,56.60
2022-10-13T20:11:33.120Z,60.67
2022-10-13T20:14:00.607Z,62.67
2022-10-13T20:16:28.236Z,50.47
2022-10-13T20:18:58.596Z,51.13
2022-10-13T20:21:27.543Z,50.70
2022-10-13T20:23:55.543Z,50.72
2022-10-13T20:26:23.714Z,48.83
2022-10-13T20:28:54.536Z,53.45
2022-10-13T20:31:22.841Z,53.72
2022-10-13T20:33:55.247Z,49.90
2022-10-13T20:36:23.911Z,49.83
2022-10-13T20:38:51.570Z,48.17
2022-10-13T20:41:22.376Z,42.00
2022-10-13T20:43:50.017Z,45.05
2022-10-13T20:46:22.245Z,44.65
2022-10-13T20:49:09.789Z,47.20
2022-10-13T20:51:38.567Z,40.88
2022-10-13T20:54:06.331Z,46.58
2022-10-13T20:56:33.724Z,43.72
2022-10-13T20:59:03.903Z,43.47
2022-10-13T21:01:31.823Z,39.78
2022-10-13T21:03:59.284Z,40.42
2022-10-13T21:06:27.437Z,42.08
2022-10-13T21:08:54.857Z,36.75
2022-10-13T21:11:24.231Z,34.33
2022-10-13T21:13:52.497Z,30.05
2022-10-13T21:16:28.658Z,29.50
2022-10-13T21:18:57.571Z,34.47
2022-10-13T21:21:30.143Z,27.85
2022-10-13T21:23:59.859Z,29.00
2022-10-13T21:26:28.933Z,26.80
2022-10-13T21:28:56.804Z,23.48
2022-10-13T21:31:25.308Z,28.30
2022-10-13T21:33:52.884Z,22.38
2022-10-13T21:36:23.395Z,15.02
2022-10-13T21:38:53.541Z,19.77
2022-10-13T21:41:21.259Z,21.70
2022-10-13T21:43:50.230Z,17.13
2022-10-13T21:46:26.121Z,16.05
2022-10-13T21:49:05.317Z,14.45
2022-10-13T21:51:35.713Z,16.10
2022-10-13T21:54:06.756Z,14.25
2022-10-13T21:59:02.581Z,13.85
2022-10-13T22:01:30.065Z,15.80
2022-10-13T22:03:59.180Z,11.20
2022-10-13T22:06:28.395Z,11.82
2022-10-13T22:08:57.669Z,9.82
2022-10-13T22:11:28.177Z,13.65
2022-10-13T22:13:59.528Z,8.40
2022-10-13T22:16:33.217Z,16.60
2022-10-13T22:19:00.663Z,12.52
2022-10-13T22:21:33.992Z,11.38
2022-10-13T22:24:03.687Z,9.77
2022-10-13T22:26:33.713Z,11.40
2022-10-13T22:29:02.450Z,10.90
2022-10-13T22:31:30.844Z,10.90
2022-10-13T22:33:58.790Z,11.75
2022-10-13T22:36:27.046Z,9.90
2022-10-13T22:38:57.118Z,14.27
2022-10-13T22:41:25.214Z,9.57
2022-10-13T22:43:58.091Z,11.48
2022-10-13T22:46:31.703Z,10.43
2022-10-13T22:48:59.913Z,12.45
2022-10-13T22:51:29.165Z,10.63
2022-10-13T22:53:57.372Z,10.95
2022-10-13T22:56:27.241Z,12.32
2022-10-13T22:58:57.373Z,9.02
2022-10-13T23:01:26.388Z,12.50
2022-10-13T23:03:56.318Z,9.98
2022-10-13T23:06:33.203Z,11.02
2022-10-13T23:09:03.492Z,11.00
2022-10-13T23:11:30.893Z,12.90
2022-10-13T23:13:58.296Z,11.85
2022-10-13T23:16:26.475Z,10.75
2022-10-13T23:18:54.703Z,9.75
2022-10-13T23:21:23.486Z,10.65
2022-10-13T23:23:59.033Z,12.73
2022-10-13T23:26:27.608Z,8.50
2022-10-13T23:28:58.569Z,11.73
2022-10-13T23:31:27.394Z,13.48
2022-10-13T23:33:55.242Z,11.95
2022-10-13T23:36:25.484Z,14.57
2022-10-13T23:39:11.484Z,11.47
2022-10-13T23:41:39.037Z,10.77
2022-10-13T23:44:06.442Z,11.07
2022-10-13T23:46:33.906Z,10.10
2022-10-13T23:49:01.314Z,10.70
2022-10-13T23:51:28.756Z,9.65
2022-10-13T23:53:56.255Z,8.45
2022-10-13T23:56:23.738Z,10.73
2022-10-13T23:58:51.248Z,9.25
